createdAt,value
2023-04-17T00:00:51.536Z,6.10
2023-04-17T00:03:18.540Z,6.10
2023-04-17T00:05:46.384Z,6.10
2023-04-17T00:08:13.483Z,6.10
2023-04-17T00:10:40.571Z,6.10
2023-04-17T00:13:10.445Z,6.00
2023-04-17T00:15:37.440Z,6.10
2023-04-17T00:18:07.285Z,6.00
2023-04-17T00:20:39.881Z,6.10
2023-04-17T00:23:16.917Z,4.40
2023-04-17T00:25:43.809Z,6.10
2023-04-17T00:28:10.832Z,6.30
2023-04-17T00:30:37.820Z,6.10
2023-04-17T00:33:04.824Z,5.60
2023-04-17T00:35:31.852Z,6.10
2023-04-17T00:37:58.869Z,6.10
2023-04-17T00:40:25.992Z,6.10
2023-04-17T00:43:02.462Z,6.10
2023-04-17T00:45:30.859Z,6.80
2023-04-17T00:47:59.299Z,6.30
2023-04-17T00:50:28.410Z,4.40
2023-04-17T00:52:55.998Z,4.90
2023-04-17T00:55:23.222Z,8.70
2023-04-17T00:57:58.450Z,5.60
2023-04-17T01:00:25.805Z,6.40
2023-04-17T01:02:53.262Z,6.10
2023-04-17T01:05:20.710Z,6.30
2023-04-17T01:07:50.649Z,5.60
2023-04-17T01:10:23.733Z,6.10
2023-04-17T01:13:05.295Z,6.20
2023-04-17T01:15:32.474Z,5.10
2023-04-17T01:18:07.026Z,6.00
2023-04-17T01:20:34.204Z,6.00
2023-04-17T01:23:04.506Z,6.00
2023-04-17T01:25:31.648Z,6.30
2023-04-17T01:28:01.590Z,6.00
2023-04-17T01:30:31.643Z,6.00
2023-04-17T01:32:58.719Z,6.00
2023-04-17T01:35:25.626Z,6.00
2023-04-17T01:45:17.711Z,6.00
2023-04-17T01:52:43.744Z,6.00
2023-04-17T01:55:13.657Z,6.00
2023-04-17T01:57:47.309Z,8.00
2023-04-17T02:00:14.921Z,5.80
2023-04-17T02:07:46.535Z,6.00
2023-04-17T02:22:46.267Z,5.90
2023-04-17T02:25:15.917Z,5.90
2023-04-17T02:30:10.986Z,5.90
2023-04-17T02:35:08.260Z,5.90
2023-04-17T02:37:35.225Z,5.90
2023-04-17T02:42:32.357Z,5.90
2023-04-17T02:44:59.445Z,5.90
2023-04-17T02:47:26.537Z,5.90
2023-04-17T02:49:55.060Z,5.90
2023-04-17T02:52:22.688Z,5.90
2023-04-17T02:54:49.702Z,5.90
2023-04-17T02:57:16.739Z,5.90
2023-04-17T03:12:21.760Z,6.00
2023-04-17T03:14:51.691Z,5.90
2023-04-17T03:17:23.796Z,6.00
2023-04-17T03:22:25.276Z,6.00
2023-04-17T03:24:52.391Z,5.90
2023-04-17T03:27:24.561Z,5.80
2023-04-17T03:29:52.034Z,6.10
2023-04-17T03:34:46.651Z,5.90
2023-04-17T03:39:43.235Z,5.90
2023-04-17T03:42:14.641Z,5.80
2023-04-17T03:47:09.804Z,5.80
2023-04-17T03:49:36.765Z,5.80
2023-04-17T03:54:44.533Z,5.80
2023-04-17T03:57:17.519Z,6.00
2023-04-17T03:59:44.566Z,6.20
2023-04-17T04:04:39.297Z,5.90
2023-04-17T04:07:09.285Z,5.80
2023-04-17T04:09:39.221Z,4.10
2023-04-17T04:12:06.298Z,5.90
2023-04-17T04:14:41.871Z,5.80
2023-04-17T04:17:15.506Z,5.80
2023-04-17T04:19:46.226Z,5.30
2023-04-17T04:22:19.664Z,5.80
2023-04-17T04:32:18.244Z,5.80
2023-04-17T04:42:34.340Z,5.90
2023-04-17T04:49:59.460Z,5.90
2023-04-17T04:54:58.569Z,5.90
2023-04-17T05:04:54.169Z,5.80
2023-04-17T05:09:48.449Z,5.90
2023-04-17T05:12:15.669Z,6.10
2023-04-17T05:14:45.611Z,5.90
2023-04-17T05:17:12.747Z,5.90
2023-04-17T05:19:39.704Z,5.90
2023-04-17T05:22:06.579Z,6.00
2023-04-17T05:24:33.973Z,6.00
2023-04-17T05:27:11.248Z,6.00
2023-04-17T05:29:40.742Z,3.70
2023-04-17T05:32:10.280Z,6.00
2023-04-17T05:34:46.753Z,6.00
2023-04-17T05:37:13.883Z,8.20
2023-04-17T05:39:46.999Z,6.10
2023-04-17T05:42:22.244Z,6.30
2023-04-17T05:44:49.458Z,6.20
2023-04-17T05:47:16.697Z,6.30
2023-04-17T05:49:44.686Z,6.20
2023-04-17T05:52:12.094Z,6.20
2023-04-17T05:54:51.322Z,6.20
2023-04-17T05:57:18.383Z,6.50
2023-04-17T05:59:51.706Z,6.20
2023-04-17T06:02:18.777Z,6.10
2023-04-17T06:04:47.075Z,6.20
2023-04-17T06:07:23.789Z,6.20
2023-04-17T06:09:50.807Z,7.30
2023-04-17T06:12:17.840Z,6.40
2023-04-17T06:14:44.736Z,6.20
2023-04-17T06:17:20.737Z,6.20
2023-04-17T06:19:47.885Z,6.20
2023-04-17T06:22:15.005Z,6.40
2023-04-17T06:24:48.028Z,6.20
2023-04-17T06:27:16.395Z,6.20
2023-04-17T06:29:45.123Z,6.30
2023-04-17T06:32:12.140Z,6.20
2023-04-17T06:34:58.499Z,6.30
2023-04-17T06:37:30.228Z,6.30
2023-04-17T06:39:57.227Z,6.30
2023-04-17T06:42:25.009Z,6.30
2023-04-17T06:44:59.525Z,6.40
2023-04-17T06:47:29.828Z,6.20
2023-04-17T06:49:59.945Z,6.30
2023-04-17T06:52:29.932Z,6.30
2023-04-17T06:54:59.126Z,6.50
2023-04-17T06:57:26.214Z,6.40
2023-04-17T06:59:53.288Z,5.60
2023-04-17T07:02:23.102Z,6.40
2023-04-17T07:04:50.472Z,6.40
2023-04-17T07:07:17.675Z,6.50
2023-04-17T07:09:45.404Z,6.40
2023-04-17T07:12:12.522Z,6.50
2023-04-17T07:14:40.726Z,6.50
2023-04-17T07:17:07.792Z,6.50
2023-04-17T07:19:35.049Z,6.50
2023-04-17T07:22:01.992Z,6.50
2023-04-17T07:24:28.833Z,6.50
2023-04-17T07:26:57.141Z,6.60
2023-04-17T07:29:24.168Z,6.50
2023-04-17T07:31:51.526Z,6.60
2023-04-17T07:34:20.785Z,6.50
2023-04-17T07:36:49.871Z,6.60
2023-04-17T07:39:16.785Z,6.50
2023-04-17T07:41:43.707Z,6.50
2023-04-17T07:44:10.704Z,6.60
2023-04-17T07:46:37.731Z,6.70
2023-04-17T07:49:04.681Z,6.60
2023-04-17T07:51:31.764Z,6.70
2023-04-17T07:53:58.709Z,6.70
2023-04-17T07:56:27.861Z,6.70
2023-04-17T07:58:54.866Z,6.80
2023-04-17T08:01:21.769Z,6.80
2023-04-17T08:03:50.465Z,6.80
2023-04-17T08:06:17.786Z,5.60
2023-04-17T08:08:47.812Z,6.80
2023-04-17T08:11:15.583Z,6.90
2023-04-17T08:13:42.681Z,6.90
2023-04-17T08:16:10.293Z,6.90
2023-04-17T08:18:42.035Z,6.90
2023-04-17T08:21:09.438Z,6.90
2023-04-17T08:23:36.493Z,6.90
2023-04-17T08:26:04.136Z,7.00
2023-04-17T08:28:31.412Z,6.90
2023-04-17T08:30:58.572Z,6.90
2023-04-17T08:33:27.134Z,6.90
2023-04-17T08:35:54.198Z,6.90
2023-04-17T08:38:21.111Z,6.90
2023-04-17T08:40:53.003Z,6.80
2023-04-17T08:43:21.279Z,6.80
2023-04-17T08:45:53.895Z,6.80
2023-04-17T08:48:23.110Z,6.80
2023-04-17T08:50:51.905Z,6.80
2023-04-17T08:53:19.849Z,6.70
2023-04-17T08:55:48.070Z,6.70
2023-04-17T08:58:15.701Z,6.70
2023-04-17T09:00:44.599Z,6.70
2023-04-17T09:03:15.502Z,6.80
2023-04-17T09:05:46.041Z,6.70
2023-04-17T09:08:20.739Z,6.80
2023-04-17T09:10:48.780Z,6.80
2023-04-17T09:13:20.689Z,6.80
2023-04-17T09:16:04.227Z,6.80
2023-04-17T09:18:32.307Z,6.90
2023-04-17T09:21:00.854Z,6.80
2023-04-17T09:23:29.863Z,6.90
2023-04-17T09:26:07.847Z,6.90
2023-04-17T09:28:41.369Z,6.90
2023-04-17T09:31:27.877Z,6.90
2023-04-17T09:34:00.506Z,6.90
2023-04-17T09:36:31.758Z,6.90
2023-04-17T09:39:01.257Z,6.90
2023-04-17T09:41:33.185Z,6.90
2023-04-17T09:44:02.025Z,6.80
2023-04-17T09:46:42.615Z,6.80
2023-04-17T09:49:19.985Z,6.70
2023-04-17T09:51:47.243Z,6.80
2023-04-17T09:54:16.144Z,6.70
2023-04-17T09:56:43.973Z,6.70
2023-04-17T09:59:11.168Z,6.70
2023-04-17T10:01:38.597Z,6.70
2023-04-17T10:04:06.324Z,6.80
2023-04-17T10:06:34.620Z,6.70
2023-04-17T10:09:02.945Z,6.70
2023-04-17T10:11:40.892Z,6.70
2023-04-17T10:14:17.257Z,6.70
2023-04-17T10:16:44.376Z,6.70
2023-04-17T10:19:30.607Z,6.70
2023-04-17T10:22:16.231Z,6.70
2023-04-17T10:24:47.636Z,6.80
2023-04-17T10:27:26.731Z,6.70
2023-04-17T10:29:57.637Z,6.80
2023-04-17T10:32:29.059Z,8.80
2023-04-17T10:35:04.542Z,6.80
2023-04-17T10:37:52.565Z,6.80
2023-04-17T10:40:33.912Z,6.90
2023-04-17T10:43:26.265Z,6.90
2023-04-17T10:46:10.000Z,7.00
2023-04-17T10:48:57.183Z,7.00
2023-04-17T10:51:24.378Z,7.10
2023-04-17T10:53:58.930Z,7.10
2023-04-17T10:56:30.895Z,7.10
2023-04-17T10:59:02.290Z,7.10
2023-04-17T11:01:48.936Z,7.10
2023-04-17T11:04:29.200Z,7.20
2023-04-17T11:06:56.564Z,7.20
2023-04-17T11:09:25.564Z,6.10
2023-04-17T11:11:52.415Z,7.40
2023-04-17T11:14:21.572Z,7.40
2023-04-17T11:16:50.574Z,7.40
2023-04-17T11:19:23.197Z,7.40
2023-04-17T11:21:52.392Z,7.50
2023-04-17T11:24:30.258Z,7.40
2023-04-17T11:26:59.919Z,7.50
2023-04-17T11:29:27.705Z,7.50
2023-04-17T11:31:56.408Z,7.60
2023-04-17T11:34:25.300Z,7.60
2023-04-17T11:36:53.039Z,7.60
2023-04-17T11:39:21.840Z,7.60
2023-04-17T11:44:18.387Z,7.60
2023-04-17T11:46:55.964Z,7.60
2023-04-17T11:49:37.547Z,7.70
2023-04-17T11:52:05.754Z,7.70
2023-04-17T11:54:39.569Z,7.70
2023-04-17T11:57:16.410Z,7.80
2023-04-17T11:59:44.882Z,7.80
2023-04-17T12:02:12.590Z,7.80
2023-04-17T12:04:40.734Z,7.80
2023-04-17T12:07:08.564Z,7.80
2023-04-17T12:09:36.171Z,7.70
2023-04-17T12:12:08.029Z,7.70
2023-04-17T12:14:35.404Z,7.70
2023-04-17T12:17:02.321Z,7.70
2023-04-17T12:19:29.929Z,7.70
2023-04-17T12:21:57.402Z,7.70
2023-04-17T12:24:25.325Z,7.70
2023-04-17T12:26:52.565Z,7.70
2023-04-17T12:29:36.141Z,7.70
2023-04-17T12:32:10.442Z,7.70
2023-04-17T12:34:37.514Z,7.70
2023-04-17T12:37:04.393Z,7.80
2023-04-17T12:39:32.779Z,7.90
2023-04-17T12:41:59.684Z,7.90
2023-04-17T12:44:26.712Z,7.90
2023-04-17T12:46:53.654Z,7.90
2023-04-17T12:49:20.605Z,7.80
2023-04-17T12:51:47.496Z,7.80
2023-04-17T12:54:14.591Z,7.80
2023-04-17T12:56:41.750Z,7.80
2023-04-17T12:59:08.650Z,7.80
2023-04-17T13:01:35.640Z,7.80
2023-04-17T13:04:02.956Z,7.80
2023-04-17T13:06:30.373Z,7.80
2023-04-17T13:08:57.506Z,7.80
2023-04-17T13:11:24.457Z,7.80
2023-04-17T13:13:51.715Z,7.80
2023-04-17T13:16:18.805Z,7.80
2023-04-17T13:18:45.745Z,7.80
2023-04-17T13:21:12.601Z,7.80
2023-04-17T13:23:39.663Z,7.80
2023-04-17T13:26:06.597Z,7.80
2023-04-17T13:28:33.581Z,7.70
2023-04-17T13:31:00.694Z,7.80
2023-04-17T13:33:27.929Z,7.80
2023-04-17T13:35:54.920Z,7.90
2023-04-17T13:38:21.958Z,7.90
2023-04-17T13:40:48.875Z,7.80
2023-04-17T13:43:15.797Z,7.80
2023-04-17T13:45:43.577Z,7.80
2023-04-17T13:48:11.606Z,7.80
2023-04-17T13:50:38.577Z,7.80
2023-04-17T13:53:05.709Z,7.80
2023-04-17T13:55:32.699Z,7.80
2023-04-17T13:58:01.084Z,7.80
2023-04-17T14:00:28.054Z,7.80
2023-04-17T14:02:55.184Z,7.80
2023-04-17T14:05:22.307Z,7.80
2023-04-17T14:07:49.179Z,7.90
2023-04-17T14:10:16.027Z,7.80
2023-04-17T14:12:44.066Z,7.90
2023-04-17T14:15:11.430Z,8.00
2023-04-17T14:17:43.034Z,7.90
2023-04-17T14:20:15.238Z,8.00
2023-04-17T14:22:42.458Z,8.00
2023-04-17T14:25:09.670Z,8.10
2023-04-17T14:27:37.068Z,8.10
2023-04-17T14:30:04.591Z,8.10
2023-04-17T14:32:31.612Z,8.10
2023-04-17T14:34:59.493Z,8.10
2023-04-17T14:37:26.986Z,8.10
2023-04-17T14:39:53.841Z,8.10
2023-04-17T14:42:20.673Z,8.00
2023-04-17T14:44:47.546Z,8.10
2023-04-17T14:47:14.637Z,8.10
2023-04-17T14:49:41.581Z,8.00
2023-04-17T14:52:08.472Z,8.00
2023-04-17T14:54:35.627Z,8.10
2023-04-17T14:57:02.842Z,8.10
2023-04-17T14:59:29.956Z,8.10
2023-04-17T15:01:56.953Z,8.00
2023-04-17T15:04:24.167Z,8.00
2023-04-17T15:06:51.218Z,8.00
2023-04-17T15:09:18.178Z,8.00
2023-04-17T15:11:46.926Z,8.00
2023-04-17T15:14:13.853Z,8.10
2023-04-17T15:16:40.865Z,8.10
2023-04-17T15:19:07.837Z,8.00
2023-04-17T15:21:34.698Z,8.00
2023-04-17T15:24:01.574Z,8.00
2023-04-17T15:26:28.732Z,8.00
2023-04-17T15:28:55.750Z,8.00
2023-04-17T15:31:22.733Z,8.00
2023-04-17T15:33:49.644Z,8.00
2023-04-17T15:36:16.825Z,8.00
2023-04-17T15:38:44.302Z,7.90
2023-04-17T15:41:11.390Z,7.90
2023-04-17T15:43:39.052Z,7.80
2023-04-17T15:46:06.088Z,7.90
2023-04-17T15:48:33.075Z,7.90
2023-04-17T15:51:02.267Z,7.90
2023-04-17T15:53:29.141Z,8.00
2023-04-17T15:55:56.428Z,8.00
2023-04-17T15:58:23.306Z,8.00
2023-04-17T16:00:50.427Z,7.90
2023-04-17T16:03:17.440Z,7.90
2023-04-17T16:05:44.573Z,7.90
2023-04-17T16:08:11.557Z,7.80
2023-04-17T16:10:38.510Z,7.80
2023-04-17T16:13:05.600Z,7.80
2023-04-17T16:15:32.658Z,7.80
2023-04-17T16:18:00.572Z,7.80
2023-04-17T16:20:27.550Z,7.90
2023-04-17T16:22:54.580Z,7.80
2023-04-17T16:25:21.610Z,7.80
2023-04-17T16:27:48.724Z,7.80
2023-04-17T16:30:15.667Z,7.70
2023-04-17T16:32:45.426Z,7.70
2023-04-17T16:35:13.305Z,7.70
2023-04-17T16:37:40.341Z,7.60
2023-04-17T16:40:07.906Z,7.60
2023-04-17T16:42:34.984Z,7.60
2023-04-17T16:47:29.947Z,7.60
2023-04-17T16:49:57.194Z,7.60
2023-04-17T16:52:24.124Z,7.60
2023-04-17T16:54:50.981Z,7.60
2023-04-17T16:57:18.380Z,7.50
2023-04-17T16:59:45.335Z,7.40
2023-04-17T17:02:12.254Z,7.40
2023-04-17T17:04:39.203Z,7.40
2023-04-17T17:07:06.338Z,7.30
2023-04-17T17:09:33.260Z,7.20
2023-04-17T17:12:00.807Z,7.10
2023-04-17T17:14:27.799Z,7.10
2023-04-17T17:16:55.103Z,7.10
2023-04-17T17:19:22.114Z,7.10
2023-04-17T17:21:50.076Z,7.10
2023-04-17T17:24:16.990Z,7.10
2023-04-17T17:26:44.017Z,7.10
2023-04-17T17:29:11.326Z,7.10
2023-04-17T17:31:38.850Z,7.10
2023-04-17T17:34:22.554Z,7.10
2023-04-17T17:36:52.656Z,7.10
2023-04-17T17:39:21.178Z,7.00
2023-04-17T17:41:48.552Z,7.10
2023-04-17T17:44:15.779Z,7.10
2023-04-17T17:46:42.852Z,7.00
2023-04-17T17:49:10.221Z,7.00
2023-04-17T17:51:37.160Z,7.10
2023-04-17T17:54:04.304Z,7.10
2023-04-17T17:56:31.362Z,7.00
2023-04-17T17:58:58.421Z,7.00
2023-04-17T18:01:25.517Z,7.00
2023-04-17T18:03:53.694Z,7.00
2023-04-17T18:06:21.344Z,7.00
2023-04-17T18:08:48.455Z,6.90
2023-04-17T18:11:15.489Z,6.90
2023-04-17T18:13:42.406Z,6.90
2023-04-17T18:16:09.524Z,6.90
2023-04-17T18:18:36.589Z,7.00
2023-04-17T18:21:07.858Z,6.90
2023-04-17T18:23:35.127Z,6.90
2023-04-17T18:26:03.805Z,6.90
2023-04-17T18:28:30.811Z,6.90
2023-04-17T18:30:57.771Z,6.90
2023-04-17T18:33:25.065Z,6.90
2023-04-17T18:35:52.201Z,6.80
2023-04-17T18:38:19.134Z,5.60
2023-04-17T18:40:46.187Z,6.80
2023-04-17T18:43:13.379Z,6.80
2023-04-17T18:45:40.277Z,6.80
2023-04-17T18:48:07.282Z,6.80
2023-04-17T18:50:34.941Z,6.80
2023-04-17T18:53:02.391Z,6.80
2023-04-17T18:55:29.572Z,6.80
2023-04-17T18:57:56.493Z,6.80
2023-04-17T19:00:23.609Z,6.70
2023-04-17T19:02:50.614Z,6.80
2023-04-17T19:05:17.816Z,6.70
2023-04-17T19:07:44.726Z,6.70
2023-04-17T19:10:11.684Z,6.70
2023-04-17T19:12:38.690Z,6.60
2023-04-17T19:15:06.458Z,6.60
2023-04-17T19:17:33.547Z,6.60
2023-04-17T19:20:00.547Z,6.60
2023-04-17T19:22:27.546Z,6.60
2023-04-17T19:24:54.442Z,6.60
2023-04-17T19:27:22.856Z,6.60
2023-04-17T19:29:49.720Z,6.50
2023-04-17T19:32:16.818Z,6.60
2023-04-17T19:34:44.365Z,6.50
2023-04-17T19:37:11.323Z,6.50
2023-04-17T19:39:38.329Z,6.40
2023-04-17T19:42:05.800Z,6.40
2023-04-17T19:44:33.245Z,6.40
2023-04-17T19:47:00.710Z,6.40
2023-04-17T19:49:28.908Z,6.40
2023-04-17T19:51:58.326Z,6.30
2023-04-17T19:54:25.331Z,6.30
2023-04-17T19:56:52.399Z,6.30
2023-04-17T19:59:19.345Z,6.40
2023-04-17T20:01:46.459Z,6.40
2023-04-17T20:04:13.712Z,6.40
2023-04-17T20:06:41.080Z,6.40
2023-04-17T20:09:08.298Z,6.00
2023-04-17T20:11:35.297Z,6.40
2023-04-17T20:16:29.463Z,6.40
2023-04-17T20:18:59.405Z,6.40
2023-04-17T20:21:26.751Z,6.30
2023-04-17T20:23:55.125Z,6.40
2023-04-17T20:26:22.134Z,6.40
2023-04-17T20:28:49.443Z,6.40
2023-04-17T20:31:16.470Z,6.40
2023-04-17T20:33:43.481Z,6.30
2023-04-17T20:36:11.883Z,6.30
2023-04-17T20:38:39.057Z,6.30
2023-04-17T20:41:05.994Z,6.30
2023-04-17T20:43:33.058Z,6.30
2023-04-17T20:46:00.151Z,6.30
2023-04-17T20:48:27.162Z,6.30
2023-04-17T20:50:54.973Z,6.30
2023-04-17T20:53:21.880Z,6.30
2023-04-17T20:55:48.904Z,6.30
2023-04-17T20:58:15.997Z,6.40
2023-04-17T21:00:54.322Z,6.40
2023-04-17T21:03:30.178Z,6.40
2023-04-17T21:05:57.346Z,6.40
2023-04-17T21:08:24.656Z,6.40
2023-04-17T21:10:52.018Z,6.40
2023-04-17T21:13:19.028Z,6.40
2023-04-17T21:15:45.954Z,6.40
2023-04-17T21:18:12.833Z,6.40
2023-04-17T21:20:40.017Z,6.40
2023-04-17T21:23:07.043Z,6.30
2023-04-17T21:25:34.007Z,6.30
2023-04-17T21:28:01.104Z,6.40
2023-04-17T21:30:27.995Z,6.40
2023-04-17T21:32:54.926Z,6.40
2023-04-17T21:35:22.024Z,6.40
2023-04-17T21:37:48.842Z,6.40
2023-04-17T21:40:15.864Z,6.30
2023-04-17T21:42:42.717Z,6.30
2023-04-17T21:45:11.240Z,8.70
2023-04-17T21:47:38.256Z,6.30
2023-04-17T21:50:05.661Z,6.30
2023-04-17T21:52:32.621Z,6.30
2023-04-17T21:55:03.311Z,6.40
2023-04-17T21:57:31.222Z,6.40
2023-04-17T21:59:58.294Z,6.40
2023-04-17T22:02:25.276Z,6.40
2023-04-17T22:04:52.781Z,6.40
2023-04-17T22:07:21.589Z,6.40
2023-04-17T22:09:48.854Z,6.40
2023-04-17T22:12:23.222Z,6.40
2023-04-17T22:14:50.156Z,6.40
2023-04-17T22:17:17.057Z,6.40
2023-04-17T22:19:44.005Z,6.40
2023-04-17T22:22:11.097Z,6.40
2023-04-17T22:24:38.052Z,6.50
2023-04-17T22:27:05.044Z,6.40
2023-04-17T22:29:31.965Z,6.50
2023-04-17T22:31:58.913Z,6.50
2023-04-17T22:34:25.783Z,6.50
2023-04-17T22:36:52.629Z,6.50
2023-04-17T22:39:19.474Z,6.50
2023-04-17T22:41:46.349Z,6.50
2023-04-17T22:44:13.805Z,6.50
2023-04-17T22:46:41.097Z,6.50
2023-04-17T22:49:08.231Z,6.50
2023-04-17T22:51:35.136Z,6.50
2023-04-17T22:54:11.538Z,6.50
2023-04-17T22:56:46.460Z,6.40
2023-04-17T22:59:13.362Z,6.40
2023-04-17T23:01:40.456Z,6.50
2023-04-17T23:04:07.449Z,6.50
2023-04-17T23:06:34.291Z,6.40
2023-04-17T23:09:01.482Z,6.50
2023-04-17T23:11:31.078Z,6.40
2023-04-17T23:13:58.021Z,6.40
2023-04-17T23:16:25.226Z,6.50
2023-04-17T23:18:52.229Z,6.50
2023-04-17T23:21:19.128Z,6.50
2023-04-17T23:23:48.285Z,6.40
2023-04-17T23:26:15.674Z,6.40
2023-04-17T23:28:42.985Z,6.40
2023-04-17T23:31:09.902Z,6.40
2023-04-17T23:33:36.955Z,6.40
2023-04-17T23:36:03.969Z,6.40
2023-04-17T23:38:31.328Z,6.40
2023-04-17T23:40:58.181Z,6.40
2023-04-17T23:43:25.093Z,6.40
2023-04-17T23:45:51.951Z,6.40
2023-04-17T23:48:18.783Z,6.50
2023-04-17T23:50:45.944Z,6.50
2023-04-17T23:53:13.063Z,6.50
2023-04-17T23:55:39.957Z,6.50
2023-04-17T23:58:06.831Z,6.60
